sensor_id;sensor_type;location;lat;lon;timestamp;P1;durP1;ratioP1;P2;durP2;ratioP2
11247;SDS011;5681;53.316;13.950;2023-09-18T00:00:54;8.20;;;6.60;;
11247;SDS011;5681;53.316;13.950;2023-09-18T00:03:22;7.80;;;6.95;;
11247;SDS011;5681;53.316;13.950;2023-09-18T00:05:49;7.95;;;7.25;;
11247;SDS011;5681;53.316;13.950;2023-09-18T00:08:16;13.48;;;6.30;;
11247;SDS011;5681;53.316;13.950;2023-09-18T00:10:43;7.15;;;6.38;;
11247;SDS011;5681;53.316;13.950;2023-09-18T00:13:13;8.40;;;6.38;;
11247;SDS011;5681;53.316;13.950;2023-09-18T00:15:39;8.65;;;6.85;;
11247;SDS011;5681;53.316;13.950;2023-09-18T00:18:06;9.63;;;7.10;;
11247;SDS011;5681;53.316;13.950;2023-09-18T00:20:34;12.68;;;7.18;;
11247;SDS011;5681;53.316;13.950;2023-09-18T00:23:00;11.40;;;6.88;;
11247;SDS011;5681;53.316;13.950;2023-09-18T00:25:27;9.13;;;7.60;;
11247;SDS011;5681;53.316;13.950;2023-09-18T00:27:55;8.05;;;7.25;;
11247;SDS011;5681;53.316;13.950;2023-09-18T00:30:22;8.38;;;7.03;;
11247;SDS011;5681;53.316;13.950;2023-09-18T00:32:48;9.05;;;7.28;;
11247;SDS011;5681;53.316;13.950;2023-09-18T00:35:15;10.30;;;7.40;;
11247;SDS011;5681;53.316;13.950;2023-09-18T00:37:42;8.68;;;7.25;;
11247;SDS011;5681;53.316;13.950;2023-09-18T00:40:09;12.13;;;6.93;;
11247;SDS011;5681;53.316;13.950;2023-09-18T00:42:37;8.20;;;7.38;;
11247;SDS011;5681;53.316;13.950;2023-09-18T00:45:03;8.63;;;7.30;;
11247;SDS011;5681;53.316;13.950;2023-09-18T00:47:30;7.85;;;7.05;;
11247;SDS011;5681;53.316;13.950;2023-09-18T00:49:57;8.70;;;7.05;;
11247;SDS011;5681;53.316;13.950;2023-09-18T00:52:23;8.05;;;7.00;;
11247;SDS011;5681;53.316;13.950;2023-09-18T00:54:52;7.78;;;7.05;;
11247;SDS011;5681;53.316;13.950;2023-09-18T00:57:18;10.60;;;7.70;;
11247;SDS011;5681;53.316;13.950;2023-09-18T00:59:45;9.02;;;7.55;;
11247;SDS011;5681;53.316;13.950;2023-09-18T01:02:11;11.70;;;7.22;;
11247;SDS011;5681;53.316;13.950;2023-09-18T01:04:38;8.60;;;7.78;;
11247;SDS011;5681;53.316;13.950;2023-09-18T01:07:09;12.07;;;7.90;;
11247;SDS011;5681;53.316;13.950;2023-09-18T01:09:36;8.65;;;7.75;;
11247;SDS011;5681;53.316;13.950;2023-09-18T01:12:05;8.32;;;7.57;;
11247;SDS011;5681;53.316;13.950;2023-09-18T01:14:37;10.90;;;7.68;;
11247;SDS011;5681;53.316;13.950;2023-09-18T01:17:05;12.32;;;8.40;;
11247;SDS011;5681;53.316;13.950;2023-09-18T01:19:36;10.05;;;7.60;;
11247;SDS011;5681;53.316;13.950;2023-09-18T01:22:03;9.65;;;7.07;;
11247;SDS011;5681;53.316;13.950;2023-09-18T01:24:32;13.75;;;7.60;;
11247;SDS011;5681;53.316;13.950;2023-09-18T01:26:58;8.95;;;7.97;;
11247;SDS011;5681;53.316;13.950;2023-09-18T01:29:25;8.27;;;7.47;;
11247;SDS011;5681;53.316;13.950;2023-09-18T01:31:52;8.15;;;7.20;;
11247;SDS011;5681;53.316;13.950;2023-09-18T01:34:18;8.70;;;7.80;;
11247;SDS011;5681;53.316;13.950;2023-09-18T01:36:46;10.38;;;7.60;;
11247;SDS011;5681;53.316;13.950;2023-09-18T01:39:12;12.02;;;7.88;;
11247;SDS011;5681;53.316;13.950;2023-09-18T01:41:40;8.80;;;7.90;;
11247;SDS011;5681;53.316;13.950;2023-09-18T01:44:07;9.48;;;8.00;;
11247;SDS011;5681;53.316;13.950;2023-09-18T01:46:33;9.20;;;8.30;;
11247;SDS011;5681;53.316;13.950;2023-09-18T01:49:01;11.40;;;8.07;;
11247;SDS011;5681;53.316;13.950;2023-09-18T01:51:27;9.25;;;8.00;;
11247;SDS011;5681;53.316;13.950;2023-09-18T01:53:55;9.05;;;8.15;;
11247;SDS011;5681;53.316;13.950;2023-09-18T01:56:21;9.95;;;8.27;;
11247;SDS011;5681;53.316;13.950;2023-09-18T01:58:49;11.10;;;8.57;;
11247;SDS011;5681;53.316;13.950;2023-09-18T02:01:15;8.85;;;8.05;;
11247;SDS011;5681;53.316;13.950;2023-09-18T02:03:42;9.55;;;8.18;;
11247;SDS011;5681;53.316;13.950;2023-09-18T02:06:08;10.07;;;8.60;;
11247;SDS011;5681;53.316;13.950;2023-09-18T02:08:34;9.77;;;8.55;;
11247;SDS011;5681;53.316;13.950;2023-09-18T02:11:01;10.27;;;8.20;;
11247;SDS011;5681;53.316;13.950;2023-09-18T02:13:28;10.35;;;8.23;;
11247;SDS011;5681;53.316;13.950;2023-09-18T02:15:55;14.32;;;8.63;;
11247;SDS011;5681;53.316;13.950;2023-09-18T02:18:22;10.70;;;8.73;;
11247;SDS011;5681;53.316;13.950;2023-09-18T02:20:48;9.00;;;8.13;;
11247;SDS011;5681;53.316;13.950;2023-09-18T02:23:15;9.85;;;8.00;;
11247;SDS011;5681;53.316;13.950;2023-09-18T02:25:41;9.32;;;8.32;;
11247;SDS011;5681;53.316;13.950;2023-09-18T02:28:07;9.13;;;8.20;;
11247;SDS011;5681;53.316;13.950;2023-09-18T02:30:34;11.20;;;8.52;;
11247;SDS011;5681;53.316;13.950;2023-09-18T02:33:02;10.68;;;8.60;;
11247;SDS011;5681;53.316;13.950;2023-09-18T02:35:28;9.13;;;8.23;;
11247;SDS011;5681;53.316;13.950;2023-09-18T02:37:55;9.80;;;8.43;;
11247;SDS011;5681;53.316;13.950;2023-09-18T02:40:21;11.85;;;8.65;;
11247;SDS011;5681;53.316;13.950;2023-09-18T02:42:48;10.10;;;8.60;;
11247;SDS011;5681;53.316;13.950;2023-09-18T02:45:14;10.75;;;8.07;;
11247;SDS011;5681;53.316;13.950;2023-09-18T02:47:40;9.35;;;8.32;;
11247;SDS011;5681;53.316;13.950;2023-09-18T02:50:09;9.93;;;8.30;;
11247;SDS011;5681;53.316;13.950;2023-09-18T02:52:36;10.63;;;8.68;;
11247;SDS011;5681;53.316;13.950;2023-09-18T02:55:03;11.05;;;8.30;;
11247;SDS011;5681;53.316;13.950;2023-09-18T02:57:30;13.25;;;8.82;;
11247;SDS011;5681;53.316;13.950;2023-09-18T02:59:56;11.52;;;8.65;;
11247;SDS011;5681;53.316;13.950;2023-09-18T03:02:23;11.20;;;8.43;;
11247;SDS011;5681;53.316;13.950;2023-09-18T03:04:50;9.98;;;8.98;;
11247;SDS011;5681;53.316;13.950;2023-09-18T03:07:17;10.93;;;8.27;;
11247;SDS011;5681;53.316;13.950;2023-09-18T03:09:44;11.30;;;8.10;;
11247;SDS011;5681;53.316;13.950;2023-09-18T03:12:10;10.55;;;8.40;;
11247;SDS011;5681;53.316;13.950;2023-09-18T03:14:36;10.18;;;8.10;;
11247;SDS011;5681;53.316;13.950;2023-09-18T03:17:03;8.93;;;7.80;;
11247;SDS011;5681;53.316;13.950;2023-09-18T03:19:29;9.77;;;7.90;;
11247;SDS011;5681;53.316;13.950;2023-09-18T03:21:55;9.75;;;8.75;;
11247;SDS011;5681;53.316;13.950;2023-09-18T03:24:23;12.32;;;8.70;;
11247;SDS011;5681;53.316;13.950;2023-09-18T03:26:50;9.57;;;8.60;;
11247;SDS011;5681;53.316;13.950;2023-09-18T03:29:17;9.63;;;8.63;;
11247;SDS011;5681;53.316;13.950;2023-09-18T03:31:43;9.82;;;8.23;;
11247;SDS011;5681;53.316;13.950;2023-09-18T03:34:09;11.93;;;7.65;;
11247;SDS011;5681;53.316;13.950;2023-09-18T03:36:36;9.10;;;8.20;;
11247;SDS011;5681;53.316;13.950;2023-09-18T03:39:04;9.95;;;8.95;;
11247;SDS011;5681;53.316;13.950;2023-09-18T03:41:31;9.02;;;8.23;;
11247;SDS011;5681;53.316;13.950;2023-09-18T03:43:59;13.07;;;8.57;;
11247;SDS011;5681;53.316;13.950;2023-09-18T03:46:25;9.50;;;8.57;;
11247;SDS011;5681;53.316;13.950;2023-09-18T03:48:52;9.80;;;8.80;;
11247;SDS011;5681;53.316;13.950;2023-09-18T03:51:18;9.10;;;8.25;;
11247;SDS011;5681;53.316;13.950;2023-09-18T03:53:45;11.70;;;8.50;;
11247;SDS011;5681;53.316;13.950;2023-09-18T03:56:13;10.27;;;8.95;;
11247;SDS011;5681;53.316;13.950;2023-09-18T03:58:40;10.23;;;8.73;;
11247;SDS011;5681;53.316;13.950;2023-09-18T04:01:07;9.93;;;8.93;;
11247;SDS011;5681;53.316;13.950;2023-09-18T04:03:33;10.23;;;9.32;;
11247;SDS011;5681;53.316;13.950;2023-09-18T04:06:00;9.40;;;8.50;;
11247;SDS011;5681;53.316;13.950;2023-09-18T04:08:28;12.18;;;9.57;;
11247;SDS011;5681;53.316;13.950;2023-09-18T04:10:54;10.60;;;9.55;;
11247;SDS011;5681;53.316;13.950;2023-09-18T04:13:23;10.77;;;9.20;;
11247;SDS011;5681;53.316;13.950;2023-09-18T04:15:50;9.90;;;9.00;;
11247;SDS011;5681;53.316;13.950;2023-09-18T04:18:21;10.93;;;9.13;;
11247;SDS011;5681;53.316;13.950;2023-09-18T04:20:48;11.25;;;8.65;;
11247;SDS011;5681;53.316;13.950;2023-09-18T04:23:20;11.07;;;8.73;;
11247;SDS011;5681;53.316;13.950;2023-09-18T04:25:47;9.80;;;8.90;;
11247;SDS011;5681;53.316;13.950;2023-09-18T04:28:14;10.07;;;9.00;;
11247;SDS011;5681;53.316;13.950;2023-09-18T04:30:41;10.38;;;9.35;;
11247;SDS011;5681;53.316;13.950;2023-09-18T04:33:09;10.20;;;9.18;;
11247;SDS011;5681;53.316;13.950;2023-09-18T04:35:36;10.57;;;9.55;;
11247;SDS011;5681;53.316;13.950;2023-09-18T04:38:04;10.45;;;8.73;;
11247;SDS011;5681;53.316;13.950;2023-09-18T04:40:31;10.88;;;9.40;;
11247;SDS011;5681;53.316;13.950;2023-09-18T04:42:58;13.00;;;9.82;;
11247;SDS011;5681;53.316;13.950;2023-09-18T04:45:24;10.52;;;9.43;;
11247;SDS011;5681;53.316;13.950;2023-09-18T04:47:51;10.85;;;9.85;;
11247;SDS011;5681;53.316;13.950;2023-09-18T04:50:18;10.73;;;9.68;;
11247;SDS011;5681;53.316;13.950;2023-09-18T04:52:45;10.70;;;9.70;;
11247;SDS011;5681;53.316;13.950;2023-09-18T04:55:12;10.93;;;9.40;;
11247;SDS011;5681;53.316;13.950;2023-09-18T04:57:39;10.80;;;9.68;;
11247;SDS011;5681;53.316;13.950;2023-09-18T05:00:06;9.85;;;8.82;;
11247;SDS011;5681;53.316;13.950;2023-09-18T05:02:34;12.07;;;8.93;;
11247;SDS011;5681;53.316;13.950;2023-09-18T05:05:00;10.23;;;9.10;;
11247;SDS011;5681;53.316;13.950;2023-09-18T05:07:29;9.40;;;8.45;;
11247;SDS011;5681;53.316;13.950;2023-09-18T05:09:56;10.23;;;9.23;;
11247;SDS011;5681;53.316;13.950;2023-09-18T05:12:22;10.80;;;9.15;;
11247;SDS011;5681;53.316;13.950;2023-09-18T05:14:49;9.50;;;8.52;;
11247;SDS011;5681;53.316;13.950;2023-09-18T05:17:16;10.57;;;9.13;;
11247;SDS011;5681;53.316;13.950;2023-09-18T05:19:42;9.85;;;8.77;;
11247;SDS011;5681;53.316;13.950;2023-09-18T05:22:09;9.70;;;8.70;;
11247;SDS011;5681;53.316;13.950;2023-09-18T05:24:37;9.25;;;8.35;;
11247;SDS011;5681;53.316;13.950;2023-09-18T05:27:04;8.38;;;7.65;;
11247;SDS011;5681;53.316;13.950;2023-09-18T05:29:31;9.27;;;8.32;;
11247;SDS011;5681;53.316;13.950;2023-09-18T05:31:57;9.68;;;8.70;;
11247;SDS011;5681;53.316;13.950;2023-09-18T05:34:24;10.65;;;8.40;;
11247;SDS011;5681;53.316;13.950;2023-09-18T05:36:50;11.18;;;8.70;;
11247;SDS011;5681;53.316;13.950;2023-09-18T05:39:17;10.35;;;8.65;;
11247;SDS011;5681;53.316;13.950;2023-09-18T05:41:46;9.93;;;8.90;;
11247;SDS011;5681;53.316;13.950;2023-09-18T05:44:12;9.30;;;8.40;;
11247;SDS011;5681;53.316;13.950;2023-09-18T05:46:39;12.27;;;8.20;;
11247;SDS011;5681;53.316;13.950;2023-09-18T05:49:05;8.70;;;7.78;;
11247;SDS011;5681;53.316;13.950;2023-09-18T05:51:32;9.48;;;8.68;;
11247;SDS011;5681;53.316;13.950;2023-09-18T05:53:59;8.60;;;7.82;;
11247;SDS011;5681;53.316;13.950;2023-09-18T05:56:25;10.25;;;7.75;;
11247;SDS011;5681;53.316;13.950;2023-09-18T05:58:53;13.38;;;8.15;;
11247;SDS011;5681;53.316;13.950;2023-09-18T06:01:20;9.25;;;7.60;;
11247;SDS011;5681;53.316;13.950;2023-09-18T06:03:46;10.85;;;8.05;;
11247;SDS011;5681;53.316;13.950;2023-09-18T06:06:13;8.35;;;7.55;;
11247;SDS011;5681;53.316;13.950;2023-09-18T06:08:39;9.68;;;7.10;;
11247;SDS011;5681;53.316;13.950;2023-09-18T06:11:05;8.43;;;7.45;;
11247;SDS011;5681;53.316;13.950;2023-09-18T06:13:32;10.82;;;7.00;;
11247;SDS011;5681;53.316;13.950;2023-09-18T06:16:00;12.25;;;7.13;;
11247;SDS011;5681;53.316;13.950;2023-09-18T06:18:32;10.30;;;6.50;;
11247;SDS011;5681;53.316;13.950;2023-09-18T06:20:58;9.77;;;7.15;;
11247;SDS011;5681;53.316;13.950;2023-09-18T06:23:24;19.05;;;7.28;;
11247;SDS011;5681;53.316;13.950;2023-09-18T06:25:51;7.63;;;6.82;;
11247;SDS011;5681;53.316;13.950;2023-09-18T06:28:21;14.73;;;7.00;;
11247;SDS011;5681;53.316;13.950;2023-09-18T06:30:47;7.03;;;6.20;;
11247;SDS011;5681;53.316;13.950;2023-09-18T06:33:15;13.20;;;7.15;;
11247;SDS011;5681;53.316;13.950;2023-09-18T06:35:42;9.90;;;7.15;;
11247;SDS011;5681;53.316;13.950;2023-09-18T06:38:08;12.65;;;6.75;;
11247;SDS011;5681;53.316;13.950;2023-09-18T06:40:37;12.88;;;6.82;;
11247;SDS011;5681;53.316;13.950;2023-09-18T06:43:04;8.55;;;6.78;;
11247;SDS011;5681;53.316;13.950;2023-09-18T06:45:30;7.38;;;6.45;;
11247;SDS011;5681;53.316;13.950;2023-09-18T06:47:58;9.30;;;6.10;;
11247;SDS011;5681;53.316;13.950;2023-09-18T06:50:26;8.50;;;6.15;;
11247;SDS011;5681;53.316;13.950;2023-09-18T06:52:52;8.13;;;6.22;;
11247;SDS011;5681;53.316;13.950;2023-09-18T06:55:19;12.48;;;6.22;;
11247;SDS011;5681;53.316;13.950;2023-09-18T06:57:45;14.35;;;6.60;;
11247;SDS011;5681;53.316;13.950;2023-09-18T07:00:12;7.30;;;6.00;;
11247;SDS011;5681;53.316;13.950;2023-09-18T07:02:43;8.82;;;6.85;;
11247;SDS011;5681;53.316;13.950;2023-09-18T07:05:10;13.40;;;6.65;;
11247;SDS011;5681;53.316;13.950;2023-09-18T07:07:37;6.53;;;5.80;;
11247;SDS011;5681;53.316;13.950;2023-09-18T07:10:04;9.30;;;6.18;;
11247;SDS011;5681;53.316;13.950;2023-09-18T07:12:31;6.63;;;5.93;;
11247;SDS011;5681;53.316;13.950;2023-09-18T07:17:24;6.53;;;5.70;;
11247;SDS011;5681;53.316;13.950;2023-09-18T07:19:51;10.70;;;5.50;;
11247;SDS011;5681;53.316;13.950;2023-09-18T07:22:17;6.05;;;5.55;;
11247;SDS011;5681;53.316;13.950;2023-09-18T07:24:45;6.38;;;5.30;;
11247;SDS011;5681;53.316;13.950;2023-09-18T07:27:11;5.88;;;5.32;;
11247;SDS011;5681;53.316;13.950;2023-09-18T07:29:38;7.00;;;5.35;;
11247;SDS011;5681;53.316;13.950;2023-09-18T07:32:04;9.38;;;5.50;;
11247;SDS011;5681;53.316;13.950;2023-09-18T07:34:31;6.82;;;5.22;;
11247;SDS011;5681;53.316;13.950;2023-09-18T07:36:57;9.90;;;5.40;;
11247;SDS011;5681;53.316;13.950;2023-09-18T07:39:24;6.50;;;5.28;;
11247;SDS011;5681;53.316;13.950;2023-09-18T07:41:51;6.68;;;5.22;;
11247;SDS011;5681;53.316;13.950;2023-09-18T07:44:18;6.28;;;4.63;;
11247;SDS011;5681;53.316;13.950;2023-09-18T07:46:45;7.32;;;4.72;;
11247;SDS011;5681;53.316;13.950;2023-09-18T07:49:11;8.93;;;4.75;;
11247;SDS011;5681;53.316;13.950;2023-09-18T07:51:39;8.63;;;4.68;;
11247;SDS011;5681;53.316;13.950;2023-09-18T07:54:06;8.38;;;5.13;;
11247;SDS011;5681;53.316;13.950;2023-09-18T07:56:32;7.80;;;4.75;;
11247;SDS011;5681;53.316;13.950;2023-09-18T07:59:02;5.32;;;4.38;;
11247;SDS011;5681;53.316;13.950;2023-09-18T08:01:30;5.70;;;3.85;;
11247;SDS011;5681;53.316;13.950;2023-09-18T08:03:57;9.55;;;5.10;;
11247;SDS011;5681;53.316;13.950;2023-09-18T08:06:24;6.43;;;4.68;;
11247;SDS011;5681;53.316;13.950;2023-09-18T08:08:51;6.38;;;4.45;;
11247;SDS011;5681;53.316;13.950;2023-09-18T08:11:18;13.20;;;4.53;;
11247;SDS011;5681;53.316;13.950;2023-09-18T08:13:44;6.30;;;4.18;;
11247;SDS011;5681;53.316;13.950;2023-09-18T08:16:12;9.30;;;4.88;;
11247;SDS011;5681;53.316;13.950;2023-09-18T08:18:39;4.20;;;3.80;;
11247;SDS011;5681;53.316;13.950;2023-09-18T08:21:06;5.15;;;4.20;;
11247;SDS011;5681;53.316;13.950;2023-09-18T08:23:34;6.68;;;4.22;;
11247;SDS011;5681;53.316;13.950;2023-09-18T08:26:01;6.55;;;4.57;;
11247;SDS011;5681;53.316;13.950;2023-09-18T08:28:28;8.95;;;4.13;;
11247;SDS011;5681;53.316;13.950;2023-09-18T08:30:55;5.22;;;4.22;;
11247;SDS011;5681;53.316;13.950;2023-09-18T08:33:25;6.93;;;3.90;;
11247;SDS011;5681;53.316;13.950;2023-09-18T08:35:51;11.10;;;4.40;;
11247;SDS011;5681;53.316;13.950;2023-09-18T08:38:17;6.53;;;4.15;;
11247;SDS011;5681;53.316;13.950;2023-09-18T08:40:44;7.43;;;3.75;;
11247;SDS011;5681;53.316;13.950;2023-09-18T08:43:10;4.18;;;3.47;;
11247;SDS011;5681;53.316;13.950;2023-09-18T08:45:40;6.97;;;4.28;;
11247;SDS011;5681;53.316;13.950;2023-09-18T08:48:11;5.78;;;3.83;;
11247;SDS011;5681;53.316;13.950;2023-09-18T08:50:39;3.63;;;3.33;;
11247;SDS011;5681;53.316;13.950;2023-09-18T08:53:06;7.47;;;3.45;;
11247;SDS011;5681;53.316;13.950;2023-09-18T08:55:33;8.98;;;3.90;;
11247;SDS011;5681;53.316;13.950;2023-09-18T08:57:59;9.57;;;4.00;;
11247;SDS011;5681;53.316;13.950;2023-09-18T09:00:26;10.63;;;4.00;;
11247;SDS011;5681;53.316;13.950;2023-09-18T09:02:52;9.98;;;4.28;;
11247;SDS011;5681;53.316;13.950;2023-09-18T09:05:19;5.63;;;3.53;;
11247;SDS011;5681;53.316;13.950;2023-09-18T09:07:47;15.52;;;3.90;;
11247;SDS011;5681;53.316;13.950;2023-09-18T09:10:14;10.73;;;3.45;;
11247;SDS011;5681;53.316;13.950;2023-09-18T09:12:51;5.78;;;3.67;;
11247;SDS011;5681;53.316;13.950;2023-09-18T09:15:19;8.68;;;3.97;;
11247;SDS011;5681;53.316;13.950;2023-09-18T09:17:46;11.43;;;3.75;;
11247;SDS011;5681;53.316;13.950;2023-09-18T09:20:13;5.65;;;3.70;;
11247;SDS011;5681;53.316;13.950;2023-09-18T09:22:40;4.07;;;3.70;;
11247;SDS011;5681;53.316;13.950;2023-09-18T09:25:22;8.40;;;3.80;;
11247;SDS011;5681;53.316;13.950;2023-09-18T09:27:51;9.35;;;3.50;;
11247;SDS011;5681;53.316;13.950;2023-09-18T09:30:18;13.27;;;3.83;;
11247;SDS011;5681;53.316;13.950;2023-09-18T09:32:47;15.65;;;3.60;;
11247;SDS011;5681;53.316;13.950;2023-09-18T09:35:18;9.27;;;4.20;;
11247;SDS011;5681;53.316;13.950;2023-09-18T09:37:45;19.63;;;3.80;;
11247;SDS011;5681;53.316;13.950;2023-09-18T09:40:12;3.80;;;3.30;;
11247;SDS011;5681;53.316;13.950;2023-09-18T09:42:40;5.18;;;3.17;;
11247;SDS011;5681;53.316;13.950;2023-09-18T09:45:10;3.83;;;3.00;;
11247;SDS011;5681;53.316;13.950;2023-09-18T09:47:38;4.60;;;3.47;;
11247;SDS011;5681;53.316;13.950;2023-09-18T09:50:08;5.50;;;3.42;;
11247;SDS011;5681;53.316;13.950;2023-09-18T09:52:35;4.22;;;3.15;;
11247;SDS011;5681;53.316;13.950;2023-09-18T09:55:02;13.13;;;3.30;;
11247;SDS011;5681;53.316;13.950;2023-09-18T09:57:30;6.35;;;3.28;;
11247;SDS011;5681;53.316;13.950;2023-09-18T10:00:03;14.85;;;3.70;;
11247;SDS011;5681;53.316;13.950;2023-09-18T10:02:50;3.67;;;3.13;;
11247;SDS011;5681;53.316;13.950;2023-09-18T10:05:17;12.88;;;3.85;;
11247;SDS011;5681;53.316;13.950;2023-09-18T10:07:44;6.63;;;3.33;;
11247;SDS011;5681;53.316;13.950;2023-09-18T10:10:11;10.02;;;3.83;;
11247;SDS011;5681;53.316;13.950;2023-09-18T10:12:37;19.83;;;3.83;;
11247;SDS011;5681;53.316;13.950;2023-09-18T10:15:06;8.60;;;3.67;;
11247;SDS011;5681;53.316;13.950;2023-09-18T10:17:34;5.65;;;2.97;;
11247;SDS011;5681;53.316;13.950;2023-09-18T10:20:05;10.13;;;3.30;;
11247;SDS011;5681;53.316;13.950;2023-09-18T10:22:37;9.35;;;3.17;;
11247;SDS011;5681;53.316;13.950;2023-09-18T10:25:11;3.85;;;3.13;;
11247;SDS011;5681;53.316;13.950;2023-09-18T10:27:42;4.88;;;3.15;;
11247;SDS011;5681;53.316;13.950;2023-09-18T10:30:11;5.10;;;2.92;;
11247;SDS011;5681;53.316;13.950;2023-09-18T10:32:39;4.38;;;2.88;;
11247;SDS011;5681;53.316;13.950;2023-09-18T10:35:06;13.15;;;3.20;;
11247;SDS011;5681;53.316;13.950;2023-09-18T10:37:33;8.07;;;3.05;;
11247;SDS011;5681;53.316;13.950;2023-09-18T10:40:01;8.63;;;3.05;;
11247;SDS011;5681;53.316;13.950;2023-09-18T10:42:29;6.18;;;2.70;;
11247;SDS011;5681;53.316;13.950;2023-09-18T10:44:56;8.80;;;3.22;;
11247;SDS011;5681;53.316;13.950;2023-09-18T10:47:23;4.22;;;2.78;;
11247;SDS011;5681;53.316;13.950;2023-09-18T10:49:50;6.53;;;3.00;;
11247;SDS011;5681;53.316;13.950;2023-09-18T10:52:16;3.75;;;2.83;;
11247;SDS011;5681;53.316;13.950;2023-09-18T10:54:43;4.05;;;2.72;;
11247;SDS011;5681;53.316;13.950;2023-09-18T10:57:10;5.40;;;2.75;;
11247;SDS011;5681;53.316;13.950;2023-09-18T10:59:42;3.88;;;2.50;;
11247;SDS011;5681;53.316;13.950;2023-09-18T11:02:09;4.93;;;2.65;;
11247;SDS011;5681;53.316;13.950;2023-09-18T11:04:37;5.10;;;2.88;;
11247;SDS011;5681;53.316;13.950;2023-09-18T11:07:04;3.00;;;2.30;;
11247;SDS011;5681;53.316;13.950;2023-09-18T11:09:31;3.17;;;2.30;;
11247;SDS011;5681;53.316;13.950;2023-09-18T11:12:02;6.00;;;2.35;;
11247;SDS011;5681;53.316;13.950;2023-09-18T11:14:41;5.28;;;2.70;;
11247;SDS011;5681;53.316;13.950;2023-09-18T11:20:02;6.07;;;2.10;;
11247;SDS011;5681;53.316;13.950;2023-09-18T11:22:34;5.00;;;2.33;;
11247;SDS011;5681;53.316;13.950;2023-09-18T11:27:59;11.73;;;2.80;;
11247;SDS011;5681;53.316;13.950;2023-09-18T11:30:26;21.38;;;2.50;;
11247;SDS011;5681;53.316;13.950;2023-09-18T11:32:53;14.02;;;2.63;;
11247;SDS011;5681;53.316;13.950;2023-09-18T11:35:21;5.38;;;2.50;;
11247;SDS011;5681;53.316;13.950;2023-09-18T11:38:02;7.13;;;2.60;;
11247;SDS011;5681;53.316;13.950;2023-09-18T11:40:31;12.05;;;2.22;;
11247;SDS011;5681;53.316;13.950;2023-09-18T11:45:44;8.70;;;2.70;;
11247;SDS011;5681;53.316;13.950;2023-09-18T11:48:15;7.90;;;2.13;;
11247;SDS011;5681;53.316;13.950;2023-09-18T11:50:44;2.78;;;1.95;;
11247;SDS011;5681;53.316;13.950;2023-09-18T11:53:10;3.72;;;2.47;;
11247;SDS011;5681;53.316;13.950;2023-09-18T11:55:37;2.47;;;2.17;;
11247;SDS011;5681;53.316;13.950;2023-09-18T11:58:05;5.85;;;2.42;;
11247;SDS011;5681;53.316;13.950;2023-09-18T12:00:34;3.10;;;2.10;;
11247;SDS011;5681;53.316;13.950;2023-09-18T12:03:12;4.20;;;2.08;;
11247;SDS011;5681;53.316;13.950;2023-09-18T12:05:41;6.60;;;2.10;;
11247;SDS011;5681;53.316;13.950;2023-09-18T12:08:09;4.53;;;2.28;;
11247;SDS011;5681;53.316;13.950;2023-09-18T12:10:36;4.68;;;2.40;;
11247;SDS011;5681;53.316;13.950;2023-09-18T12:13:05;11.32;;;2.40;;
11247;SDS011;5681;53.316;13.950;2023-09-18T12:15:33;4.32;;;2.28;;
11247;SDS011;5681;53.316;13.950;2023-09-18T12:18:04;10.05;;;2.72;;
11247;SDS011;5681;53.316;13.950;2023-09-18T12:20:31;8.25;;;2.72;;
11247;SDS011;5681;53.316;13.950;2023-09-18T12:22:59;5.70;;;2.40;;
11247;SDS011;5681;53.316;13.950;2023-09-18T12:25:27;4.60;;;2.60;;
11247;SDS011;5681;53.316;13.950;2023-09-18T12:27:53;4.32;;;2.17;;
11247;SDS011;5681;53.316;13.950;2023-09-18T12:30:20;7.35;;;2.40;;
11247;SDS011;5681;53.316;13.950;2023-09-18T12:32:47;3.35;;;2.15;;
11247;SDS011;5681;53.316;13.950;2023-09-18T12:35:13;5.50;;;2.50;;
11247;SDS011;5681;53.316;13.950;2023-09-18T12:37:40;4.38;;;2.33;;
11247;SDS011;5681;53.316;13.950;2023-09-18T12:40:07;5.18;;;2.50;;
11247;SDS011;5681;53.316;13.950;2023-09-18T12:42:37;7.25;;;2.38;;
11247;SDS011;5681;53.316;13.950;2023-09-18T12:45:05;9.77;;;2.40;;
11247;SDS011;5681;53.316;13.950;2023-09-18T12:47:32;6.43;;;2.40;;
11247;SDS011;5681;53.316;13.950;2023-09-18T12:50:01;3.97;;;2.15;;
11247;SDS011;5681;53.316;13.950;2023-09-18T12:52:28;6.43;;;2.50;;
11247;SDS011;5681;53.316;13.950;2023-09-18T12:54:57;16.35;;;2.85;;
11247;SDS011;5681;53.316;13.950;2023-09-18T12:57:24;6.93;;;2.50;;
11247;SDS011;5681;53.316;13.950;2023-09-18T12:59:52;5.10;;;2.90;;
11247;SDS011;5681;53.316;13.950;2023-09-18T13:02:20;4.32;;;2.70;;
11247;SDS011;5681;53.316;13.950;2023-09-18T13:04:50;4.03;;;2.40;;
11247;SDS011;5681;53.316;13.950;2023-09-18T13:07:18;3.00;;;2.70;;
11247;SDS011;5681;53.316;13.950;2023-09-18T13:09:57;3.75;;;2.42;;
11247;SDS011;5681;53.316;13.950;2023-09-18T13:12:24;5.65;;;2.67;;
11247;SDS011;5681;53.316;13.950;2023-09-18T13:14:58;5.65;;;2.63;;
11247;SDS011;5681;53.316;13.950;2023-09-18T13:17:25;4.50;;;2.45;;
11247;SDS011;5681;53.316;13.950;2023-09-18T13:19:51;10.75;;;2.70;;
11247;SDS011;5681;53.316;13.950;2023-09-18T13:22:22;10.27;;;2.50;;
11247;SDS011;5681;53.316;13.950;2023-09-18T13:24:54;3.80;;;2.67;;
11247;SDS011;5681;53.316;13.950;2023-09-18T13:27:21;7.50;;;2.60;;
11247;SDS011;5681;53.316;13.950;2023-09-18T13:29:48;8.65;;;2.95;;
11247;SDS011;5681;53.316;13.950;2023-09-18T13:32:16;8.35;;;2.50;;
11247;SDS011;5681;53.316;13.950;2023-09-18T13:34:42;5.90;;;2.60;;
11247;SDS011;5681;53.316;13.950;2023-09-18T13:37:10;6.47;;;3.10;;
11247;SDS011;5681;53.316;13.950;2023-09-18T13:39:36;10.65;;;2.83;;
11247;SDS011;5681;53.316;13.950;2023-09-18T13:42:03;5.78;;;2.70;;
11247;SDS011;5681;53.316;13.950;2023-09-18T13:44:30;8.52;;;2.95;;
11247;SDS011;5681;53.316;13.950;2023-09-18T13:46:56;5.53;;;2.65;;
11247;SDS011;5681;53.316;13.950;2023-09-18T13:49:24;6.93;;;2.83;;
11247;SDS011;5681;53.316;13.950;2023-09-18T13:51:50;10.82;;;3.20;;
11247;SDS011;5681;53.316;13.950;2023-09-18T13:54:17;10.18;;;3.25;;
11247;SDS011;5681;53.316;13.950;2023-09-18T13:56:43;10.75;;;3.40;;
11247;SDS011;5681;53.316;13.950;2023-09-18T13:59:10;12.23;;;2.88;;
11247;SDS011;5681;53.316;13.950;2023-09-18T14:01:36;7.78;;;3.03;;
11247;SDS011;5681;53.316;13.950;2023-09-18T14:04:02;7.53;;;3.15;;
11247;SDS011;5681;53.316;13.950;2023-09-18T14:06:30;7.65;;;2.97;;
11247;SDS011;5681;53.316;13.950;2023-09-18T14:08:58;6.63;;;2.90;;
11247;SDS011;5681;53.316;13.950;2023-09-18T14:11:24;11.57;;;3.42;;
11247;SDS011;5681;53.316;13.950;2023-09-18T14:13:51;7.38;;;3.00;;
11247;SDS011;5681;53.316;13.950;2023-09-18T14:16:17;5.90;;;3.20;;
11247;SDS011;5681;53.316;13.950;2023-09-18T14:18:44;6.70;;;3.00;;
11247;SDS011;5681;53.316;13.950;2023-09-18T14:21:10;9.00;;;2.88;;
11247;SDS011;5681;53.316;13.950;2023-09-18T14:23:38;3.60;;;2.70;;
11247;SDS011;5681;53.316;13.950;2023-09-18T14:26:04;9.20;;;3.40;;
11247;SDS011;5681;53.316;13.950;2023-09-18T14:28:31;6.50;;;3.28;;
11247;SDS011;5681;53.316;13.950;2023-09-18T14:30:58;6.22;;;3.15;;
11247;SDS011;5681;53.316;13.950;2023-09-18T14:33:24;5.88;;;2.88;;
11247;SDS011;5681;53.316;13.950;2023-09-18T14:35:51;6.95;;;2.90;;
11247;SDS011;5681;53.316;13.950;2023-09-18T14:38:17;3.17;;;2.88;;
11247;SDS011;5681;53.316;13.950;2023-09-18T14:40:45;8.32;;;3.30;;
11247;SDS011;5681;53.316;13.950;2023-09-18T14:43:12;10.07;;;3.10;;
11247;SDS011;5681;53.316;13.950;2023-09-18T14:45:38;5.07;;;2.97;;
11247;SDS011;5681;53.316;13.950;2023-09-18T14:48:06;6.35;;;3.47;;
11247;SDS011;5681;53.316;13.950;2023-09-18T14:50:32;3.63;;;2.92;;
11247;SDS011;5681;53.316;13.950;2023-09-18T14:52:59;4.55;;;3.17;;
11247;SDS011;5681;53.316;13.950;2023-09-18T14:55:25;6.57;;;2.97;;